Time;durP1;ratioP1;P1;durP2;ratioP2;P2;SDS_P1;SDS_P2;PMS_P1;PMS_P2;Temp;Humidity;BMP_temperature;BMP_pressure;BME280_temperature;BME280_humidity;BME280_pressure;Samples;Min_cycle;Max_cycle;Signal;HPM_P1;HPM_P2
2022/12/03 00:00:00;;;;;;;18.10;13.90;;;;;;;1.46;99.97;102364.97;5075225;28;20515;-34
2022/12/03 00:02:25;;;;;;;19.57;14.57;;;;;;;1.46;100.00;102365.81;5075600;28;20105;-33
2022/12/03 00:04:51;;;;;;;19.07;14.03;;;;;;;1.47;100.00;102362.19;5075009;28;20769;-34
2022/12/03 00:07:16;;;;;;;22.83;16.13;;;;;;;1.31;100.00;102350.31;5075021;28;20461;-33
2022/12/03 00:09:41;;;;;;;19.20;14.20;;;;;;;1.39;100.00;102362.00;5072405;28;20286;-34
2022/12/03 00:12:07;;;;;;;19.90;15.27;;;;;;;1.44;99.99;102369.59;5075025;28;20033;-34
2022/12/03 00:14:32;;;;;;;21.10;15.18;;;;;;;1.41;100.00;102349.38;5075547;28;20024;-34
2022/12/03 00:16:58;;;;;;;19.80;14.80;;;;;;;1.35;100.00;102341.09;5075616;28;20381;-34
2022/12/03 00:19:23;;;;;;;19.67;15.67;;;;;;;1.40;100.00;102355.69;5074969;28;20025;-33
2022/12/03 00:21:48;;;;;;;22.53;16.37;;;;;;;1.33;100.00;102341.22;5075514;28;20024;-34
2022/12/03 00:24:14;;;;;;;21.90;16.67;;;;;;;1.41;100.00;102357.38;5074855;28;20025;-34
2022/12/03 00:26:39;;;;;;;20.50;15.57;;;;;;;1.45;100.00;102355.28;5074393;28;20054;-34
2022/12/03 00:29:04;;;;;;;22.43;15.63;;;;;;;1.32;100.00;102333.34;5075019;28;20032;-34
2022/12/03 00:31:29;;;;;;;20.33;15.83;;;;;;;1.39;100.00;102350.50;5073441;28;20404;-33
2022/12/03 00:33:55;;;;;;;21.63;15.20;;;;;;;1.37;100.00;102329.31;5075077;28;20031;-34
2022/12/03 00:36:20;;;;;;;23.50;16.43;;;;;;;1.43;100.00;102343.94;5074477;28;20029;-34
2022/12/03 00:38:46;;;;;;;20.10;15.35;;;;;;;1.45;100.00;102347.28;5075106;28;20063;-34
2022/12/03 00:41:11;;;;;;;19.33;14.90;;;;;;;1.47;100.00;102345.34;5074730;28;20032;-34
2022/12/03 00:43:37;;;;;;;21.48;16.08;;;;;;;1.36;100.00;102318.78;5074370;28;20537;-34
2022/12/03 00:46:02;;;;;;;21.55;15.07;;;;;;;1.30;100.00;102325.50;5074063;28;20113;-34
2022/12/03 00:48:28;;;;;;;19.53;15.17;;;;;;;1.44;100.00;102343.78;5073923;28;20073;-34
2022/12/03 00:50:53;;;;;;;23.30;15.73;;;;;;;1.44;100.00;102341.13;5074120;28;20043;-34
2022/12/03 00:53:18;;;;;;;23.30;16.40;;;;;;;1.44;100.00;102335.78;5073865;28;20036;-34
2022/12/03 00:55:44;;;;;;;22.47;15.83;;;;;;;1.51;100.00;102338.75;5073742;28;20029;-34
2022/12/03 00:58:09;;;;;;;23.83;16.83;;;;;;;1.45;100.00;102345.47;5072476;28;20086;-34
2022/12/03 01:00:35;;;;;;;22.73;15.50;;;;;;;1.49;100.00;102330.06;5074179;28;20024;-34
2022/12/03 01:03:01;;;;;;;;;;;;;;;1.57;100.00;102338.22;5073307;28;20441;-33
2022/12/03 01:05:26;;;;;;;20.80;14.63;;;;;;;1.55;100.00;102346.34;5073590;28;19908;-33
2022/12/03 01:07:51;;;;;;;20.97;15.20;;;;;;;1.50;100.00;102334.41;5074361;28;20036;-33
2022/12/03 01:10:17;;;;;;;20.90;15.33;;;;;;;1.59;100.00;102341.59;5088992;28;20040;-33
2022/12/03 01:12:42;;;;;;;21.13;15.47;;;;;;;1.63;100.00;102343.00;5073951;28;20036;-33
2022/12/03 01:15:08;;;;;;;22.87;16.40;;;;;;;1.61;100.00;102336.97;5073451;28;20135;-33
2022/12/03 01:17:34;;;;;;;22.50;16.65;;;;;;;1.53;100.00;102331.47;5073697;28;20115;-34
2022/12/03 01:20:00;;;;;;;23.63;17.90;;;;;;;1.41;100.00;102308.56;5073313;28;20100;-33
2022/12/03 01:22:25;;;;;;;;;;;;;;;1.58;100.00;102341.75;5074755;28;20474;-34
2022/12/03 01:24:51;;;;;;;21.90;15.73;;;;;;;1.45;100.00;102329.47;5073709;28;19909;-34
2022/12/03 01:27:16;;;;;;;23.20;16.37;;;;;;;1.55;100.00;102343.69;5073903;28;20116;-34
2022/12/03 01:29:41;;;;;;;22.53;15.93;;;;;;;1.46;100.00;102341.81;5073382;28;20044;-34
2022/12/03 01:32:20;;;;;;;23.00;16.93;;;;;;;1.41;100.00;102335.22;5073403;28;20029;-34
2022/12/03 01:34:48;;;;;;;22.52;16.60;;;;;;;1.40;100.00;102337.03;5073881;28;20022;-34
2022/12/03 01:37:13;;;;;;;22.10;16.05;;;;;;;1.44;100.00;102332.28;5073320;28;20407;-34
2022/12/03 01:39:39;;;;;;;23.52;16.50;;;;;;;1.50;100.00;102334.41;5072548;28;20036;-34
2022/12/03 01:42:07;;;;;;;21.70;16.95;;;;;;;1.41;100.00;102325.38;5073220;28;20025;-34
2022/12/03 01:44:35;;;;;;;23.42;16.58;;;;;;;1.43;100.00;102331.44;5071796;28;20067;-35
2022/12/03 01:47:05;;;;;;;20.80;15.90;;;;;;;1.51;100.00;102325.41;5071861;28;20024;-34
2022/12/03 01:49:41;;;;;;;23.20;17.92;;;;;;;1.41;100.00;102320.06;5073463;28;20032;-34
2022/12/03 01:52:24;;;;;;;22.58;16.73;;;;;;;1.43;100.00;102322.59;5073663;28;20051;-34
2022/12/03 01:54:56;;;;;;;24.02;17.17;;;;;;;1.48;100.00;102323.88;5073138;28;20032;-34
2022/12/03 01:57:23;;;;;;;23.42;16.77;;;;;;;1.50;100.00;102316.56;5073303;28;20107;-34
2022/12/03 01:59:49;;;;;;;23.75;17.23;;;;;;;1.46;100.00;102316.97;5072873;28;20496;-34
2022/12/03 02:02:23;;;;;;;24.52;17.38;;;;;;;1.44;100.00;102329.63;5073009;28;20032;-34
2022/12/03 02:04:51;;;;;;;23.83;16.85;;;;;;;1.44;100.00;102325.13;5073168;28;20029;-34
2022/12/03 02:07:26;;;;;;;23.20;16.83;;;;;;;1.47;100.00;102329.34;5072547;28;20032;-34
2022/12/03 02:09:53;;;;;;;22.70;16.92;;;;;;;1.52;100.00;102327.13;5073377;28;20024;-34
2022/12/03 02:12:23;;;;;;;23.42;17.65;;;;;;;1.53;100.00;102328.81;5073576;28;20048;-34
2022/12/03 02:14:49;;;;;;;22.45;16.33;;;;;;;1.60;100.00;102323.75;5072762;28;20314;-34
2022/12/03 02:17:15;;;;;;;22.83;17.95;;;;;;;1.53;100.00;102324.31;5071463;28;20142;-34
2022/12/03 02:19:40;;;;;;;;;;;;;;;1.63;100.00;102323.50;5073597;28;20078;-34
2022/12/03 02:22:31;;;;;;;25.67;16.53;;;;;;;1.61;100.00;102317.44;5072880;28;19908;-34
2022/12/03 02:25:05;;;;;;;23.42;17.60;;;;;;;1.54;100.00;102309.16;5072555;28;20404;-34
2022/12/03 02:27:30;;;;;;;23.40;16.52;;;;;;;1.50;100.00;102291.75;5072762;28;20032;-34
2022/12/03 02:29:56;;;;;;;22.23;16.07;;;;;;;1.68;100.00;102318.59;5073161;28;20055;-34
2022/12/03 02:32:22;;;;;;;19.87;16.40;;;;;;;1.53;100.00;102294.16;5072144;28;20107;-34
2022/12/03 02:34:48;;;;;;;23.45;16.63;;;;;;;1.64;100.00;102318.03;5076830;28;20017;-34
2022/12/03 02:37:20;;;;;;;24.33;18.27;;;;;;;1.58;100.00;102310.56;5076762;28;20103;-33
2022/12/03 02:39:53;;;;;;;23.15;17.30;;;;;;;1.66;100.00;102312.53;5077061;28;20449;-34
2022/12/03 02:42:34;;;;;;;25.40;18.30;;;;;;;1.64;100.00;102309.19;5076662;28;20111;-34
2022/12/03 02:45:02;;;;;;;23.17;16.67;;;;;;;1.66;100.00;102310.75;5076963;28;20031;-34
2022/12/03 02:47:29;;;;;;;25.58;19.10;;;;;;;1.50;100.00;102313.91;5077126;28;20024;-34
2022/12/03 02:49:56;;;;;;;21.90;17.20;;;;;;;1.54;100.00;102301.16;5076501;28;20085;-34
2022/12/03 02:52:21;;;;;;;23.38;16.85;;;;;;;1.58;100.00;102310.56;5076522;28;20138;-34
2022/12/03 02:54:47;;;;;;;21.95;17.10;;;;;;;1.59;100.00;102303.41;5076427;28;20037;-34
2022/12/03 02:57:14;;;;;;;27.15;18.50;;;;;;;1.54;100.00;102303.81;5076323;28;20103;-34
2022/12/03 02:59:40;;;;;;;23.83;17.25;;;;;;;1.55;100.00;102292.19;5076872;28;20032;-34
2022/12/03 03:02:06;;;;;;;24.52;17.77;;;;;;;1.63;100.00;102303.00;5076600;28;20037;-34
2022/12/03 03:04:31;;;;;;;24.52;19.25;;;;;;;1.62;100.00;102304.00;5076781;28;20032;-34
2022/12/03 03:06:57;;;;;;;26.27;20.08;;;;;;;1.46;100.00;102307.16;5076188;28;20044;-34
2022/12/03 03:09:23;;;;;;;24.83;18.63;;;;;;;1.54;100.00;102301.16;5076539;28;20429;-34
2022/12/03 03:11:48;;;;;;;27.50;19.70;;;;;;;1.48;100.00;102299.88;5076830;28;20047;-34
2022/12/03 03:14:13;;;;;;;25.43;18.87;;;;;;;1.50;100.00;102297.91;5076530;28;20461;-34
2022/12/03 03:16:39;;;;;;;29.60;21.27;;;;;;;1.40;100.00;102291.72;5075749;28;20059;-34
2022/12/03 03:19:04;;;;;;;25.83;18.47;;;;;;;1.45;100.00;102293.97;5075637;28;20526;-34
2022/12/03 03:21:29;;;;;;;26.33;18.77;;;;;;;1.50;100.00;102300.59;5076491;28;20063;-34
2022/12/03 03:23:55;;;;;;;28.83;19.63;;;;;;;1.50;100.00;102295.25;5075881;28;20036;-34
2022/12/03 03:26:20;;;;;;;23.70;17.97;;;;;;;1.53;100.00;102292.31;5075862;28;20031;-34
2022/12/03 03:28:48;;;;;;;24.80;18.30;;;;;;;1.58;100.00;102278.59;5075731;28;20484;-34
2022/12/03 03:31:17;;;;;;;25.23;18.30;;;;;;;1.53;100.00;102275.50;5073968;28;20044;-34
2022/12/03 03:33:44;;;;;;;24.52;18.55;;;;;;;1.47;100.00;102274.22;5076195;28;20041;-34
2022/12/03 03:36:11;;;;;;;27.10;19.35;;;;;;;1.58;100.00;102283.91;5075302;28;20032;-34
2022/12/03 03:38:38;;;;;;;25.10;18.42;;;;;;;1.48;100.00;102262.56;5075810;28;20058;-34
2022/12/03 03:41:04;;;;;;;23.13;18.13;;;;;;;1.48;100.00;102283.91;5075302;28;20032;-34
2022/12/03 03:43:33;;;;;;;25.65;18.67;;;;;;;1.49;100.00;102279.41;5076165;28;20047;-34
2022/12/03 03:45:59;;;;;;;24.92;19.08;;;;;;;1.47;100.00;102281.38;5075650;28;20029;-34
2022/12/03 03:48:25;;;;;;;26.90;20.52;;;;;;;1.45;100.00;102272.66;5075806;28;20029;-47
2022/12/03 03:50:51;;;;;;;25.20;19.17;;;;;;;1.37;100.00;102267.19;5075347;28;20178;-34
2022/12/03 03:53:17;;;;;;;24.55;18.90;;;;;;;1.46;100.00;102274.31;5076128;28;20024;-34
2022/12/03 03:55:43;;;;;;;24.55;18.42;;;;;;;1.40;100.00;102270.38;5073897;28;20043;-34
2022/12/03 03:58:08;;;;;;;24.98;18.13;;;;;;;1.48;100.00;102277.72;5075749;28;20036;-34
2022/12/03 04:00:35;;;;;;;27.08;20.90;;;;;;;1.45;100.00;102277.97;5075336;28;20488;-34
2022/12/03 04:03:02;;;;;;;26.27;19.50;;;;;;;1.50;100.00;102271.25;5074876;28;20459;-34
2022/12/03 04:05:28;;;;;;;26.77;18.70;;;;;;;1.53;100.00;102275.50;5075267;28;20377;-34
2022/12/03 04:07:53;;;;;;;26.13;18.38;;;;;;;1.54;100.00;102271.84;5075239;28;20033;-34
2022/12/03 04:13:03;;;;;;;25.67;18.75;;;;;;;1.52;100.00;102257.81;5075608;28;20182;-34
2022/12/03 04:15:29;;;;;;;24.23;19.17;;;;;;;1.61;100.00;102267.66;5074997;28;20024;-34
2022/12/03 04:20:39;;;;;;;25.50;19.00;;;;;;;1.65;100.00;102269.03;5074874;28;20074;-34
2022/12/03 04:23:04;;;;;;;24.67;18.80;;;;;;;1.59;100.00;102258.09;5074922;28;20419;-35
2022/12/03 04:36:40;;;;;;;26.98;20.85;;;;;;;1.40;100.00;102259.72;5018596;28;20111;-35
2022/12/03 04:39:05;;;;;;;26.07;19.13;;;;;;;1.47;100.00;102260.03;5032460;28;20045;-34
2022/12/03 04:41:30;;;;;;;29.40;19.90;;;;;;;1.50;100.00;102270.41;5032579;28;20037;-35
2022/12/03 04:46:39;;;;;;;25.70;19.75;;;;;;;1.33;100.00;102236.44;5032399;28;20532;-34
2022/12/03 04:49:05;;;;;;;25.93;19.97;;;;;;;1.41;100.00;102244.56;5032098;28;20056;-34
2022/12/03 04:51:30;;;;;;;24.93;18.83;;;;;;;1.53;100.00;102254.16;5031892;28;20513;-34
2022/12/03 04:53:55;;;;;;;27.77;20.20;;;;;;;1.52;100.00;102250.66;5032236;28;20572;-34
2022/12/03 04:56:21;;;;;;;27.73;20.63;;;;;;;1.38;100.00;102235.03;5031262;28;20029;-34
2022/12/03 04:58:46;;;;;;;30.20;21.13;;;;;;;1.48;100.00;102254.56;5032354;28;20072;-34
2022/12/03 05:01:11;;;;;;;27.80;20.23;;;;;;;1.51;100.00;102256.97;5031963;28;20037;-34
2022/12/03 05:03:36;;;;;;;28.57;19.23;;;;;;;1.51;100.00;102251.63;5032308;28;20029;-34
2022/12/03 05:06:02;;;;;;;27.83;20.97;;;;;;;1.48;100.00;102251.91;5040200;28;20045;-35
2022/12/03 05:08:28;;;;;;;27.90;19.45;;;;;;;1.47;100.00;102250.22;5073864;28;20421;-34
2022/12/03 05:10:53;;;;;;;28.00;21.53;;;;;;;1.38;100.00;102239.53;5073559;28;20028;-34
2022/12/03 05:13:18;;;;;;;29.87;19.87;;;;;;;1.43;100.00;102253.28;5073954;28;20063;-34
2022/12/03 05:15:44;;;;;;;28.33;20.87;;;;;;;1.47;100.00;102260.88;5074394;28;20025;-34
2022/12/03 05:18:09;;;;;;;29.17;20.50;;;;;;;1.47;100.00;102254.72;5073804;28;20045;-34
2022/12/03 05:20:40;;;;;;;28.33;20.63;;;;;;;1.45;100.00;102246.84;5073396;28;20024;-34
2022/12/03 05:23:06;;;;;;;28.67;21.13;;;;;;;1.38;100.00;102239.53;5073583;28;20070;-34
2022/12/03 05:25:31;;;;;;;28.10;19.35;;;;;;;1.42;100.00;102239.13;5073465;28;20032;-34
2022/12/03 05:27:56;;;;;;;28.43;20.67;;;;;;;1.40;100.00;102242.91;5073956;28;20035;-34
2022/12/03 05:30:22;;;;;;;25.97;18.93;;;;;;;1.41;100.00;102237.41;5072145;28;20040;-34
2022/12/03 05:32:47;;;;;;;27.57;19.50;;;;;;;1.44;100.00;102237.16;5073543;28;20028;-34
2022/12/03 05:35:12;;;;;;;29.03;21.80;;;;;;;1.44;100.00;102244.31;5073346;28;20386;-34
2022/12/03 05:37:38;;;;;;;29.03;19.97;;;;;;;1.45;100.00;102238.00;5073850;28;20029;-34
2022/12/03 05:40:04;;;;;;;28.57;20.53;;;;;;;1.44;100.00;102238.97;5073307;28;20032;-34
2022/12/03 05:45:13;;;;;;;25.50;18.92;;;;;;;1.43;100.00;102226.63;5073444;28;20040;-34
2022/12/03 05:47:38;;;;;;;27.43;20.50;;;;;;;1.57;100.00;102236.91;5073280;28;20024;-34
2022/12/03 05:50:04;;;;;;;28.43;19.60;;;;;;;1.57;100.00;102228.91;5071707;28;20027;-34
2022/12/03 05:52:30;;;;;;;26.95;19.38;;;;;;;1.60;100.00;102222.44;5073098;28;20042;-34
2022/12/03 05:54:55;;;;;;;27.90;19.50;;;;;;;1.61;100.00;102225.00;5072118;28;20028;-33
2022/12/03 05:57:20;;;;;;;30.07;20.13;;;;;;;1.57;100.00;102228.91;5073359;28;20063;-34
2022/12/03 05:59:46;;;;;;;27.47;19.83;;;;;;;1.55;100.00;102220.19;5072955;28;20056;-34
2022/12/03 06:02:11;;;;;;;28.30;20.07;;;;;;;1.48;100.00;102229.72;5073012;28;20670;-33
2022/12/03 06:04:36;;;;;;;28.47;19.63;;;;;;;1.52;100.00;102231.16;5073511;28;20040;-35
2022/12/03 06:07:02;;;;;;;28.37;20.20;;;;;;;1.53;100.00;102230.16;5072080;28;20444;-35
2022/12/03 06:09:27;;;;;;;28.57;20.60;;;;;;;1.52;100.00;102236.47;5072650;28;20440;-35
2022/12/03 06:11:53;;;;;;;27.00;19.47;;;;;;;1.52;100.00;102231.16;5073163;28;20028;-35
2022/12/03 06:14:19;;;;;;;27.08;19.95;;;;;;;1.47;100.00;102223.56;5073194;28;20457;-35
2022/12/03 06:16:44;;;;;;;30.17;22.45;;;;;;;1.46;100.00;102226.34;5072903;28;20029;-35
2022/12/03 06:19:09;;;;;;;29.83;21.33;;;;;;;1.44;100.00;102234.50;5072064;28;20043;-35
2022/12/03 06:21:35;;;;;;;29.53;21.60;;;;;;;1.32;100.00;102216.94;5072594;28;20043;-34
2022/12/03 06:24:00;;;;;;;32.17;21.73;;;;;;;1.40;100.00;102227.75;5073086;28;20032;-35
2022/12/03 06:26:25;;;;;;;31.40;21.67;;;;;;;1.40;100.00;102230.41;5072828;28;20103;-35
2022/12/03 06:28:51;;;;;;;30.20;19.60;;;;;;;1.41;100.00;102226.75;5072997;28;20059;-42
2022/12/03 06:31:16;;;;;;;30.63;21.17;;;;;;;1.50;100.00;102227.75;5072821;28;20074;-35
2022/12/03 06:33:41;;;;;;;32.00;21.80;;;;;;;1.48;100.00;102224.41;5072654;28;20051;-34
2022/12/03 06:36:07;;;;;;;27.90;20.13;;;;;;;1.42;100.00;102230.28;5071434;28;20032;-35
2022/12/03 06:38:32;;;;;;;32.03;20.90;;;;;;;1.39;100.00;102227.88;5072875;28;20040;-35
2022/12/03 06:40:58;;;;;;;28.83;19.70;;;;;;;1.37;100.00;102228.03;5072675;28;20032;-35
2022/12/03 06:43:23;;;;;;;31.40;21.10;;;;;;;1.42;100.00;102228.47;5072342;28;20067;-35
2022/12/03 06:45:48;;;;;;;32.23;21.00;;;;;;;1.44;100.00;102228.31;5071486;28;20025;-34
2022/12/03 06:48:14;;;;;;;28.17;19.80;;;;;;;1.40;100.00;102206.41;5072410;28;20020;-35
2022/12/03 06:50:39;;;;;;;27.80;20.27;;;;;;;1.42;100.00;102225.81;5072975;28;20028;-35
2022/12/03 06:53:04;;;;;;;31.90;21.50;;;;;;;1.39;100.00;102219.88;5072836;28;20032;-34
2022/12/03 06:55:30;;;;;;;26.90;19.53;;;;;;;1.36;100.00;102220.16;5073016;28;20091;-35
2022/12/03 06:57:55;;;;;;;28.47;18.87;;;;;;;1.37;100.00;102221.88;5072289;28;20074;-35
2022/12/03 07:00:20;;;;;;;27.40;19.77;;;;;;;1.36;100.00;102214.81;5072329;28;20017;-34
2022/12/03 07:02:46;;;;;;;31.75;21.52;;;;;;;1.32;100.00;102214.28;5071407;28;20031;-35
2022/12/03 07:05:11;;;;;;;29.87;21.17;;;;;;;1.28;100.00;102213.69;5072727;28;20020;-35
2022/12/03 07:07:36;;;;;;;28.47;21.07;;;;;;;1.28;100.00;102216.38;5072716;28;20152;-35
2022/12/03 07:10:03;;;;;;;29.90;19.87;;;;;;;1.35;100.00;102219.31;5072361;28;20070;-35
2022/12/03 07:12:28;;;;;;;28.25;18.90;;;;;;;1.41;100.00;102220.59;5071538;28;20397;-35
2022/12/03 07:14:54;;;;;;;27.00;18.77;;;;;;;1.35;100.00;102210.47;5070767;28;20025;-35
2022/12/03 07:17:19;;;;;;;26.77;18.70;;;;;;;1.42;100.00;102211.63;5071504;28;20035;-35
2022/12/03 07:19:45;;;;;;;28.03;18.00;;;;;;;1.47;100.00;102214.72;5057491;28;20028;-34
2022/12/03 07:22:10;;;;;;;31.00;21.50;;;;;;;1.24;100.00;102201.63;5075881;28;20267;-34
2022/12/03 07:24:35;;;;;;;25.90;18.73;;;;;;;1.40;100.00;102216.25;5075579;28;20066;-35
2022/12/03 07:27:01;;;;;;;29.57;20.13;;;;;;;1.40;100.00;102221.56;5075861;28;20048;-35
2022/12/03 07:29:26;;;;;;;27.05;19.10;;;;;;;1.38;100.00;102218.22;5076096;28;20024;-34
2022/12/03 07:31:52;;;;;;;26.53;19.73;;;;;;;1.38;100.00;102223.53;5075744;28;20079;-35
2022/12/03 07:34:17;;;;;;;28.10;18.50;;;;;;;1.40;100.00;102219.75;5076062;28;20372;-35
2022/12/03 07:36:42;;;;;;;29.87;18.87;;;;;;;1.38;100.00;102218.22;5076196;28;20070;-35
2022/12/03 07:39:08;;;;;;;27.73;18.50;;;;;;;1.37;100.00;102217.38;5090939;28;20537;-35
2022/12/03 07:41:33;;;;;;;26.97;18.20;;;;;;;1.39;100.00;102222.56;5075259;28;20036;-34
2022/12/03 07:43:58;;;;;;;25.63;17.13;;;;;;;1.43;100.00;102226.63;5057488;28;20497;-35
2022/12/03 07:46:24;;;;;;;25.33;17.03;;;;;;;1.38;100.00;102223.53;5075222;28;20029;-35
2022/12/03 07:48:49;;;;;;;24.33;16.50;;;;;;;1.38;100.00;102210.22;5074798;28;20146;-34
2022/12/03 07:51:14;;;;;;;25.30;16.83;;;;;;;1.46;100.00;102224.53;5075429;28;20281;-34
2022/12/03 07:53:40;;;;;;;25.73;17.87;;;;;;;1.46;100.00;102221.00;5075393;28;20042;-35
2022/12/03 07:56:06;;;;;;;26.40;17.77;;;;;;;1.45;100.00;102222.00;5075504;28;20025;-34
2022/12/03 07:58:31;;;;;;;26.20;17.58;;;;;;;1.42;100.00;102223.13;5076115;28;20115;-35
2022/12/03 08:00:57;;;;;;;24.23;16.03;;;;;;;1.41;100.00;102216.09;5075284;28;20111;-34
2022/12/03 08:03:22;;;;;;;25.77;17.93;;;;;;;1.38;100.00;102220.88;5075718;28;20073;-34
2022/12/03 08:05:48;;;;;;;25.52;17.80;;;;;;;1.38;100.00;102227.06;5075679;28;20480;-34
2022/12/03 08:08:13;;;;;;;26.13;17.40;;;;;;;1.41;100.00;102229.41;5075792;28;20520;-35
2022/12/03 08:10:38;;;;;;;26.83;18.30;;;;;;;1.38;100.00;102220.88;5075399;28;20106;-35
2022/12/03 08:13:10;;;;;;;28.47;19.80;;;;;;;1.35;100.00;102229.13;5075568;28;20089;-35
2022/12/03 08:15:35;;;;;;;26.30;18.52;;;;;;;1.33;100.00;102236.44;5075562;28;20028;-35
2022/12/03 08:18:10;;;;;;;28.30;17.57;;;;;;;1.37;100.00;102228.03;5075558;28;20082;-34
2022/12/03 08:20:39;;;;;;;27.75;17.90;;;;;;;1.38;100.00;102224.38;5075226;28;20035;-34
2022/12/03 08:23:29;;;;;;;26.50;17.45;;;;;;;1.45;100.00;102228.16;5075137;28;20033;-34
2022/12/03 08:25:54;;;;;;;25.73;17.88;;;;;;;1.40;100.00;102229.56;5073993;28;20080;-34
2022/12/03 08:28:25;;;;;;;24.60;17.00;;;;;;;1.42;100.00;102219.63;5075502;28;20453;-34
2022/12/03 08:31:19;;;;;;;26.17;17.70;;;;;;;1.44;100.00;102228.31;5073904;28;20048;-34
2022/12/03 08:33:47;;;;;;;27.73;18.17;;;;;;;1.35;100.00;102232.63;4993025;28;20065;-34
2022/12/03 08:36:17;;;;;;;24.83;18.20;;;;;;;1.33;100.00;102231.09;4993131;28;20046;-34
2022/12/03 08:38:50;;;;;;;29.25;18.60;;;;;;;1.24;100.00;102212.28;4993320;28;20486;-34
2022/12/03 08:42:40;;;;;;;30.85;20.25;;;;;;;1.27;100.00;102233.34;4993264;28;20037;-35
2022/12/03 08:44:26;;;;;;;29.05;18.75;;;;;;;1.29;100.00;102228.72;4992722;28;20129;-35
2022/12/03 08:46:59;;;;;;;30.25;18.85;;;;;;;1.31;100.00;102222.38;4993575;28;20129;-35
2022/12/03 08:49:24;;;;;;;32.00;19.38;;;;;;;1.39;100.00;102225.22;4993385;28;20031;-35
2022/12/03 08:51:54;;;;;;;29.90;19.07;;;;;;;1.37;100.00;102225.38;4992721;28;20121;-35
2022/12/03 08:54:20;;;;;;;30.73;19.92;;;;;;;1.40;100.00;102224.22;4993139;28;20038;-35
2022/12/03 08:56:45;;;;;;;32.40;20.20;;;;;;;1.41;100.00;102225.91;4992682;28;20061;-35
2022/12/03 08:59:31;;;;;;;31.43;19.40;;;;;;;1.44;100.00;102221.16;4992758;28;20348;-35
2022/12/03 09:01:58;;;;;;;29.45;19.38;;;;;;;1.43;100.00;102227.47;4992795;28;20034;-34
2022/12/03 09:04:26;;;;;;;28.40;17.50;;;;;;;1.42;100.00;102215.13;4992463;28;20058;-34
2022/12/03 09:06:52;;;;;;;28.15;18.63;;;;;;;1.46;100.00;102226.34;4992413;28;20126;-34
2022/12/03 09:09:18;;;;;;;29.85;18.75;;;;;;;1.46;100.00;102226.34;4992370;28;20038;-35
2022/12/03 09:11:43;;;;;;;29.37;18.43;;;;;;;1.47;100.00;102228.91;5069734;28;20388;-34
2022/12/03 09:14:09;;;;;;;29.53;17.57;;;;;;;1.50;100.00;102227.75;5072348;28;20041;-35
2022/12/03 09:16:34;;;;;;;28.75;19.00;;;;;;;1.53;100.00;102223.00;5073820;28;20029;-35
2022/12/03 09:19:00;;;;;;;28.13;18.73;;;;;;;1.58;100.00;102222.59;5074634;28;20143;-34
2022/12/03 09:21:25;;;;;;;31.53;19.37;;;;;;;1.55;100.00;102226.34;5073446;28;20109;-34
2022/12/03 09:23:51;;;;;;;31.77;19.57;;;;;;;1.50;100.00;102217.09;5073659;28;20039;-35
2022/12/03 09:26:16;;;;;;;30.00;19.13;;;;;;;1.44;100.00;102207.00;5074133;28;20025;-34
2022/12/03 09:28:41;;;;;;;31.97;19.53;;;;;;;1.48;100.00;102225.25;5073874;28;20071;-34
2022/12/03 09:31:07;;;;;;;35.20;21.47;;;;;;;1.29;100.00;102212.72;5073699;28;20437;-35
2022/12/03 09:33:32;;;;;;;34.23;20.17;;;;;;;1.36;100.00;102220.16;5073571;28;20051;-34
2022/12/03 09:35:58;;;;;;;34.47;21.43;;;;;;;1.37;100.00;102221.88;5073514;28;20078;-34
2022/12/03 09:38:24;;;;;;;32.50;18.88;;;;;;;1.45;100.00;102225.50;5072723;28;20036;-34
2022/12/03 09:40:49;;;;;;;34.38;21.92;;;;;;;1.27;100.00;102206.69;5073607;28;20051;-34
2022/12/03 09:43:15;;;;;;;33.47;21.13;;;;;;;1.46;100.00;102229.00;5073596;28;20040;-34
2022/12/03 09:45:48;;;;;;;34.53;21.60;;;;;;;1.41;100.00;102228.59;5073124;28;20025;-34
2022/12/03 09:48:18;;;;;;;33.45;20.42;;;;;;;1.51;100.00;102214.31;5073141;28;20036;-34
2022/12/03 09:50:44;;;;;;;35.53;21.42;;;;;;;1.48;100.00;102214.56;5071812;28;20484;-34
2022/12/03 09:53:12;;;;;;;;;;;;;;;1.58;100.00;102214.59;5073827;28;20036;-35
2022/12/03 09:55:37;;;;;;;31.20;19.40;;;;;;;1.55;100.00;102209.53;5073699;28;19908;-34
2022/12/03 09:58:10;;;;;;;36.92;21.27;;;;;;;1.43;100.00;102200.81;5074034;28;20364;-35
2022/12/03 10:00:35;;;;;;;37.15;21.00;;;;;;;1.44;100.00;102207.00;5073274;28;20460;-34
2022/12/03 10:03:03;;;;;;;31.63;18.87;;;;;;;1.44;100.00;102210.50;5073304;28;20067;-35
2022/12/03 10:05:29;;;;;;;33.75;20.50;;;;;;;1.38;100.00;102207.56;5072747;28;20785;-35
2022/12/03 10:08:06;;;;;;;35.13;21.05;;;;;;;1.24;100.00;102190.13;5072587;28;20045;-34
2022/12/03 10:10:31;;;;;;;;;;;;;;;1.40;100.00;102203.75;5073446;28;20028;-34
2022/12/03 10:12:57;;;;;;;33.75;21.48;;;;;;;1.39;100.00;102198.56;5072839;28;19908;-35
2022/12/03 10:15:23;;;;;;;35.77;21.30;;;;;;;1.37;100.00;102190.72;5072781;28;20066;-35
2022/12/03 10:17:51;;;;;;;32.92;20.98;;;;;;;1.41;100.00;102196.59;5073187;28;20017;-34
2022/12/03 10:20:19;;;;;;;35.00;20.55;;;;;;;1.43;100.00;102198.16;5072910;28;20107;-35
2022/12/03 10:22:47;;;;;;;34.25;21.58;;;;;;;1.35;100.00;102183.81;5073217;28;20051;-35
2022/12/03 10:25:16;;;;;;;34.17;20.88;;;;;;;1.33;100.00;102183.13;5073130;28;20028;-34
2022/12/03 10:27:41;;;;;;;34.55;20.52;;;;;;;1.29;100.00;102167.41;5072838;28;20024;-34
2022/12/03 10:30:15;;;;;;;30.97;19.93;;;;;;;1.40;100.00;102177.09;5072494;28;20056;-35
2022/12/03 10:32:46;;;;;;;34.75;20.80;;;;;;;1.32;100.00;102162.78;5072761;28;20135;-35
2022/12/03 10:35:33;;;;;;;33.85;19.85;;;;;;;1.49;100.00;102178.94;5072693;28;20373;-35
2022/12/03 10:38:00;;;;;;;;;;;;;;;1.56;100.00;102173.88;5062709;28;20047;-35
2022/12/03 10:40:36;;;;;;;36.13;20.70;;;;;;;1.47;100.00;102169.41;5073099;28;19965;-35
2022/12/03 10:43:12;;;;;;;34.05;21.33;;;;;;;1.40;100.00;102170.94;5072371;28;20108;-36
2022/12/03 10:45:38;;;;;;;31.73;20.13;;;;;;;1.37;100.00;102169.41;5072391;28;20028;-35
2022/12/03 10:48:05;;;;;;;33.60;20.00;;;;;;;1.40;100.00;102160.25;5071722;28;20159;-35
2022/12/03 10:50:31;;;;;;;33.40;19.27;;;;;;;1.29;100.00;102151.41;5072783;28;20365;-35
2022/12/03 10:52:56;;;;;;;;;;;;;;;1.41;100.00;102165.44;5073915;28;20415;-35
2022/12/03 10:55:22;;;;;;;30.67;17.23;;;;;;;1.28;99.23;102163.06;5076391;28;19952;-35
2022/12/03 10:57:47;;;;;;;26.20;17.17;;;;;;;1.25;98.61;102155.34;5076901;28;20255;-35
2022/12/03 11:00:17;;;;;;;25.53;16.87;;;;;;;1.25;98.46;102144.69;5077227;28;20056;-35
2022/12/03 11:02:43;;;;;;;27.17;17.30;;;;;;;1.21;97.56;102147.75;5077244;28;20036;-35
2022/12/03 11:05:17;;;;;;;21.30;14.43;;;;;;;1.31;98.04;102145.09;5076910;28;20036;-35
2022/12/03 11:07:43;;;;;;;20.95;14.43;;;;;;;1.28;97.21;102127.59;5076863;28;20021;-35
2022/12/03 11:10:15;;;;;;;23.05;14.85;;;;;;;1.32;95.67;102138.78;5076256;28;20476;-35
2022/12/03 11:12:40;;;;;;;18.05;13.13;;;;;;;1.32;95.20;102137.00;5076313;28;20032;-34
2022/12/03 11:15:14;;;;;;;17.67;13.57;;;;;;;1.23;95.52;102114.66;5076339;28;20025;-35
2022/12/03 11:17:47;;;;;;;17.42;13.73;;;;;;;1.27;94.91;102137.41;5076832;28;20130;-34
2022/12/03 11:20:24;;;;;;;18.23;12.60;;;;;;;1.36;95.25;102141.03;5076277;28;20047;-35
2022/12/03 11:22:56;;;;;;;19.15;13.50;;;;;;;1.29;95.55;102124.75;5075844;28;20039;-35
2022/12/03 11:25:28;;;;;;;20.00;14.23;;;;;;;1.26;94.48;102127.69;5075712;28;20028;-34
2022/12/03 11:28:14;;;;;;;19.23;13.15;;;;;;;1.35;95.35;102123.38;5075219;28;20119;-34
2022/12/03 11:30:48;;;;;;;16.60;11.97;;;;;;;1.40;94.67;102117.63;5076197;28;20076;-35
2022/12/03 11:33:25;;;;;;;20.33;13.82;;;;;;;1.40;95.20;102117.63;5075822;28;20083;-35